Wendell, NC

3:04 AM EST on February 12, 2016 (GMT -0500)
Riley Hill-wendell,NC | | Change Station
CLOSE
Current Station
Personal Weather Station
Location: Wendell, NC
Elevation: 322 ft
Nearby Weather Stations
Active Advisory: Winter Weather Advisory

Elev 322 ft 35.87 °N, 78.40 °W | Updated 4 days ago

Mostly Cloudy
Mostly Cloudy
24 °F
Feels Like 24 °F
N
3
Wind Variable Wind from ENE
Gusts mph

Today
High -- | Low -- °F
--% Chance of Precip.
Yesterday
High -- | Low -- °F
Precip. -- in
Pressure 30.33 in
Visibility 10.0 miles
Clouds Mostly Cloudy 6500 ft
Overcast 11000 ft
Dew Point 7 °F
Humidity 47%
Rainfall in
Snow Depth Not available.
7:04 AM 5:51 PM
Waxing Crescent, 18% visible
METAR KLHZ 120735Z AUTO 05003KT 10SM BKN065 OVC110 M03/M13 A3033 RMK AO2
Pressure 30.33 in
Visibility 10.0 miles
Clouds Mostly Cloudy 6500 ft
Overcast 11000 ft
Dew Point 7 °F
Humidity 47%
Rainfall in
Snow Depth Not available.
7:04 AM 5:51 PM
Waxing Crescent, 18% visible
METAR KLHZ 120735Z AUTO 05003KT 10SM BKN065 OVC110 M03/M13 A3033 RMK AO2

10-Day Weather Forecast

Almanac

Astronomy

Feb. 12, 2016 Rise Set
Actual Time
Civil Twilight
Nautical Twilight
Astronomical Twilight
Moon
Length of Visible Light
Length of Day
Tomorrow will be .
, % of the Moon is Illuminated

Today's Extremes

State Highs State Lows

Community

WunderPhotos

Upload Photos

1,892,278 photos uploaded!

WunderBlog® & News

Nearby

Air Quality

  Air Quality AQ Index Pollutant
Not available.

Snow Depth

Station Depth Elevation

Earthquake Activity

City Distance Mag. Time & Date
Minimum magnitude displayed is 2.5.

Coastal Water Temperatures

Place Temperature

Stations

Nearby Weather Stations

Station Location Temp. Windchill Dew Point Humidity Wind Precip. Elev Updated Type
                   

Watches & Warnings

Winter Weather Advisory
Issued: 11:09 PM EST Feb. 11, 2016 – National Weather Service

... Winter Weather Advisory remains in effect from 7 am to 7 PM
EST Friday...

* location and timing... portions of the Triangle and northeast
coastal plain from late morning to mid afternoon.

* Hazard type and accumulation... a dusting to one inch of snow
accumulation... primarily along and east of Interstate 95. Snow
may mix with sleet near the Highway 64 corridor.

* Impacts... hazardous travel conditions... especially on bridges
and overpasses.

Precautionary/preparedness actions...

A Winter Weather Advisory means that wintry precipitation is expected
to result in travel difficulties. Be prepared for slippery roads and
use caution while driving.